Dallas, Texas
Traffic Map
Current Weather Conditions
Dallas, Texas
Few Clouds
Few Clouds
34°
Feels Like: 34°
Wind Chill: 34° Ceiling: Unl
Heat Index: 34° Visibility: 10mi
Dew Point: 17° Wind: 13mph
Humidity: 37% Direction: 140° (SE)
Pressure: 29.94in Gusts: 0mph
Raw Report DataKDAL 022253Z 14011KT 10SM FEW065 34/17 A2994 RMK AO2 SLP130 T03390172
Traffic Incident Summary
Active as of:
Severity:
Category:
InformationThere was an issue retrieving the traffic information for this location. Please try a different location or try again shortly.
Advertisements
Track Severe Weather on mobile